createdAt,value
2019-01-18T00:02:18.501Z,14.67
2019-01-18T00:04:56.486Z,13.15
2019-01-18T00:07:26.837Z,12.37
2019-01-18T00:09:57.485Z,11.10
2019-01-18T00:12:31.039Z,12.33
2019-01-18T00:17:41.770Z,12.70
2019-01-18T00:20:12.192Z,13.00
2019-01-18T00:22:46.198Z,11.90
2019-01-18T00:25:17.253Z,13.23
2019-01-18T00:27:47.563Z,10.10
2019-01-18T00:30:24.407Z,10.28
2019-01-18T00:32:51.645Z,10.20
2019-01-18T00:35:22.218Z,9.25
2019-01-18T00:37:53.905Z,10.07
2019-01-18T00:40:24.919Z,10.32
2019-01-18T00:42:55.236Z,10.47
2019-01-18T00:45:32.216Z,8.43
2019-01-18T00:47:57.559Z,7.73
2019-01-18T00:50:30.482Z,9.03
2019-01-18T00:53:00.763Z,8.13
2019-01-18T00:55:31.396Z,8.45
2019-01-18T00:58:02.085Z,8.20
2019-01-18T01:00:33.034Z,8.63
2019-01-18T01:03:04.951Z,8.90
2019-01-18T01:05:38.667Z,8.78
2019-01-18T01:08:08.946Z,7.90
2019-01-18T01:10:39.674Z,7.92
2019-01-18T01:13:10.075Z,7.93
2019-01-18T01:15:41.445Z,9.25
2019-01-18T01:18:14.945Z,8.20
2019-01-18T01:20:46.692Z,9.33
2019-01-18T01:23:17.146Z,8.30
2019-01-18T01:25:51.706Z,8.18
2019-01-18T01:28:23.268Z,9.50
2019-01-18T01:30:54.981Z,9.15
2019-01-18T01:33:25.334Z,10.93
2019-01-18T01:35:57.296Z,12.60
2019-01-18T01:38:27.750Z,10.07
2019-01-18T01:40:59.363Z,10.15
2019-01-18T01:43:29.722Z,11.80
2019-01-18T01:46:00.034Z,11.20
2019-01-18T01:48:30.336Z,11.80
2019-01-18T01:51:00.665Z,11.37
2019-01-18T01:53:32.897Z,10.75
2019-01-18T01:56:03.265Z,10.87
2019-01-18T01:58:33.867Z,11.20
2019-01-18T02:01:04.519Z,11.33
2019-01-18T02:03:37.034Z,11.53
2019-01-18T02:06:07.394Z,10.63
2019-01-18T02:08:38.041Z,9.83
2019-01-18T02:11:09.956Z,10.50
2019-01-18T02:13:41.931Z,10.78
2019-01-18T02:16:12.398Z,9.90
2019-01-18T02:18:50.933Z,9.85
2019-01-18T02:21:21.280Z,9.87
2019-01-18T02:23:51.845Z,9.63
2019-01-18T02:26:24.484Z,8.30
2019-01-18T02:28:56.312Z,8.38
2019-01-18T02:31:26.667Z,9.90
2019-01-18T02:33:56.987Z,10.50
2019-01-18T02:36:27.387Z,8.70
2019-01-18T02:38:59.177Z,9.30
2019-01-18T02:41:29.536Z,8.23
2019-01-18T02:44:01.009Z,8.23
2019-01-18T02:46:31.362Z,8.00
2019-01-18T02:49:03.022Z,9.90
2019-01-18T02:51:33.347Z,8.87
2019-01-18T02:54:04.421Z,10.85
2019-01-18T02:56:34.831Z,8.33
2019-01-18T02:59:07.805Z,8.14
2019-01-18T03:01:39.351Z,8.27
2019-01-18T03:04:14.821Z,8.33
2019-01-18T03:06:45.404Z,7.50
2019-01-18T03:09:15.812Z,7.07
2019-01-18T03:11:46.210Z,8.50
2019-01-18T03:14:16.636Z,8.70
2019-01-18T03:16:47.319Z,7.80
2019-01-18T03:19:17.601Z,9.60
2019-01-18T03:21:47.917Z,9.87
2019-01-18T03:24:20.886Z,8.67
2019-01-18T03:26:51.547Z,7.70
2019-01-18T03:29:21.867Z,7.20
2019-01-18T03:31:55.347Z,7.60
2019-01-18T03:34:26.803Z,9.33
2019-01-18T03:36:57.158Z,10.03
2019-01-18T03:39:27.542Z,9.90
2019-01-18T03:41:58.365Z,10.40
2019-01-18T03:44:28.812Z,10.33
2019-01-18T03:47:05.984Z,8.40
2019-01-18T03:49:36.567Z,8.00
2019-01-18T03:52:07.177Z,7.20
2019-01-18T03:54:37.749Z,7.00
2019-01-18T03:57:10.272Z,6.80
2019-01-18T03:59:40.548Z,7.93
2019-01-18T04:02:16.419Z,7.88
2019-01-18T04:04:46.807Z,9.50
2019-01-18T04:07:19.325Z,7.40
2019-01-18T04:09:52.080Z,7.33
2019-01-18T04:12:22.372Z,7.55
2019-01-18T04:14:53.244Z,7.10
2019-01-18T04:17:27.449Z,6.33
2019-01-18T04:19:57.850Z,5.67
2019-01-18T04:22:30.092Z,5.70
2019-01-18T04:25:14.502Z,4.73
2019-01-18T04:27:47.654Z,4.60
2019-01-18T04:30:21.258Z,4.10
2019-01-18T04:32:51.729Z,4.10
2019-01-18T04:35:25.731Z,5.43
2019-01-18T04:37:56.333Z,5.70
2019-01-18T04:40:27.625Z,6.10
2019-01-18T04:43:00.693Z,6.05
2019-01-18T04:45:31.026Z,6.33
2019-01-18T04:48:01.643Z,6.90
2019-01-18T04:50:38.673Z,6.50
2019-01-18T04:53:08.957Z,5.00
2019-01-18T04:55:39.279Z,6.20
2019-01-18T04:58:26.580Z,6.10
2019-01-18T05:00:44.316Z,6.43
2019-01-18T05:03:15.026Z,6.00
2019-01-18T05:05:51.878Z,5.07
2019-01-18T05:08:21.051Z,5.90
2019-01-18T05:10:51.352Z,8.80
2019-01-18T05:13:29.244Z,11.53
2019-01-18T05:16:00.621Z,10.93
2019-01-18T05:18:32.882Z,13.76
2019-01-18T05:21:03.298Z,13.40
2019-01-18T05:23:36.137Z,12.07
2019-01-18T05:26:06.821Z,12.00
2019-01-18T05:28:37.578Z,9.90
2019-01-18T05:31:07.845Z,9.00
2019-01-18T05:33:38.419Z,9.40
2019-01-18T05:36:08.792Z,12.13
2019-01-18T05:38:39.250Z,12.02
2019-01-18T05:41:16.240Z,13.90
2019-01-18T05:43:52.071Z,11.75
2019-01-18T05:46:22.383Z,11.87
2019-01-18T05:48:54.888Z,12.07
2019-01-18T05:51:25.240Z,12.13
2019-01-18T05:53:55.783Z,12.07
2019-01-18T05:56:26.364Z,9.20
2019-01-18T05:58:58.313Z,7.12
2019-01-18T06:01:28.856Z,7.47
2019-01-18T06:04:03.265Z,6.38
2019-01-18T06:06:33.989Z,7.63
2019-01-18T06:09:06.788Z,8.50
2019-01-18T06:11:37.130Z,8.63
2019-01-18T06:14:08.484Z,7.67
2019-01-18T06:16:43.523Z,8.10
2019-01-18T06:19:15.688Z,6.72
2019-01-18T06:21:46.405Z,6.87
2019-01-18T06:24:20.878Z,6.92
2019-01-18T06:26:51.557Z,7.00
2019-01-18T06:29:22.488Z,7.47
2019-01-18T06:31:55.432Z,7.10
2019-01-18T06:34:27.106Z,12.50
2019-01-18T06:36:57.705Z,13.80
2019-01-18T06:39:36.608Z,14.00
2019-01-18T06:42:06.946Z,13.73
2019-01-18T06:44:37.258Z,15.25
2019-01-18T06:47:13.360Z,15.30
2019-01-18T06:49:44.025Z,15.63
2019-01-18T06:52:14.335Z,13.37
2019-01-18T06:54:51.278Z,15.90
2019-01-18T06:57:21.955Z,16.50
2019-01-18T06:59:52.559Z,17.48
2019-01-18T07:02:22.991Z,16.83
2019-01-18T07:04:54.857Z,16.00
2019-01-18T07:07:25.317Z,16.00
2019-01-18T07:09:59.426Z,17.17
2019-01-18T07:12:30.049Z,19.20
2019-01-18T07:15:01.145Z,19.92
2019-01-18T07:17:37.276Z,18.47
2019-01-18T07:20:11.571Z,17.16
2019-01-18T07:22:42.102Z,16.80
2019-01-18T07:25:16.650Z,14.10
2019-01-18T07:27:46.956Z,16.97
2019-01-18T07:30:22.970Z,18.50
2019-01-18T07:32:58.027Z,17.87
2019-01-18T07:35:28.478Z,14.03
2019-01-18T07:37:59.045Z,14.50
2019-01-18T07:40:37.559Z,15.35
2019-01-18T07:43:08.039Z,18.53
2019-01-18T07:45:38.614Z,17.02
2019-01-18T07:48:08.974Z,17.93
2019-01-18T07:50:39.582Z,14.50
2019-01-18T07:53:11.626Z,12.93
2019-01-18T07:55:42.321Z,15.10
2019-01-18T07:58:12.708Z,15.60
2019-01-18T08:00:43.281Z,20.40
2019-01-18T08:03:13.601Z,17.80
2019-01-18T08:05:44.105Z,22.60
2019-01-18T08:08:14.403Z,21.10
2019-01-18T08:10:45.370Z,21.77
2019-01-18T08:13:18.480Z,21.33
2019-01-18T08:15:48.804Z,20.47
2019-01-18T08:18:19.246Z,16.93
2019-01-18T08:20:55.834Z,23.30
2019-01-18T08:23:26.634Z,24.00
2019-01-18T08:25:57.774Z,24.12
2019-01-18T08:28:31.660Z,25.60
2019-01-18T08:31:03.211Z,26.35
2019-01-18T08:33:33.512Z,27.00
2019-01-18T08:36:09.107Z,29.30
2019-01-18T08:38:39.443Z,27.63
2019-01-18T08:41:12.475Z,30.17
2019-01-18T08:43:42.771Z,29.27
2019-01-18T08:46:15.670Z,24.90
2019-01-18T08:48:46.099Z,27.53
2019-01-18T08:51:18.682Z,30.45
2019-01-18T08:53:49.304Z,29.67
2019-01-18T08:56:20.644Z,28.07
2019-01-18T08:58:51.365Z,28.47
2019-01-18T09:01:22.068Z,30.20
2019-01-18T09:03:54.198Z,29.57
2019-01-18T09:06:24.792Z,24.90
2019-01-18T09:08:55.189Z,22.90
2019-01-18T09:11:27.259Z,21.13
2019-01-18T09:13:59.871Z,19.67
2019-01-18T09:16:30.055Z,22.48
2019-01-18T09:19:01.689Z,21.23
2019-01-18T09:21:32.028Z,19.30
2019-01-18T09:24:03.278Z,20.20
2019-01-18T09:26:39.665Z,20.27
2019-01-18T09:29:10.336Z,21.52
2019-01-18T09:31:42.648Z,21.37
2019-01-18T09:34:19.900Z,18.53
2019-01-18T09:36:50.278Z,21.00
2019-01-18T09:39:21.100Z,20.50
2019-01-18T09:41:51.471Z,23.00
2019-01-18T09:44:22.008Z,21.73
2019-01-18T09:46:52.308Z,21.30
2019-01-18T09:49:27.541Z,20.15
2019-01-18T09:51:59.417Z,20.10
2019-01-18T09:54:29.904Z,20.12
2019-01-18T09:57:13.864Z,19.03
2019-01-18T09:59:36.923Z,20.75
2019-01-18T10:02:07.356Z,20.60
2019-01-18T10:04:38.777Z,21.15
2019-01-18T10:07:09.083Z,21.00
2019-01-18T10:09:40.521Z,20.95
2019-01-18T10:12:10.842Z,20.40
2019-01-18T10:14:41.160Z,21.43
2019-01-18T10:17:11.970Z,20.73
2019-01-18T10:19:42.503Z,20.47
2019-01-18T10:22:12.969Z,21.70
2019-01-18T10:24:45.768Z,19.82
2019-01-18T10:27:16.473Z,20.90
2019-01-18T10:29:54.467Z,22.37
2019-01-18T10:32:24.865Z,21.40
2019-01-18T10:34:55.506Z,21.57
2019-01-18T10:37:30.846Z,21.33
2019-01-18T10:39:59.965Z,21.37
2019-01-18T10:42:30.707Z,21.37
2019-01-18T10:45:02.514Z,22.75
2019-01-18T10:47:34.197Z,21.87
2019-01-18T10:50:06.191Z,21.10
2019-01-18T10:52:39.880Z,20.10
2019-01-18T10:55:11.693Z,22.87
2019-01-18T10:57:42.037Z,21.63
2019-01-18T11:00:33.021Z,20.90
2019-01-18T11:03:18.002Z,21.13
2019-01-18T11:05:39.094Z,21.00
2019-01-18T11:08:09.419Z,22.30
2019-01-18T11:10:47.865Z,22.83
2019-01-18T11:13:20.584Z,25.30
2019-01-18T11:15:51.068Z,23.53
2019-01-18T11:18:40.791Z,22.87
2019-01-18T11:21:27.282Z,22.50
2019-01-18T11:23:57.643Z,22.80
2019-01-18T11:26:28.139Z,22.10
2019-01-18T11:29:20.651Z,21.68
2019-01-18T11:31:39.468Z,22.62
2019-01-18T11:34:09.916Z,24.07
2019-01-18T11:36:50.776Z,22.13
2019-01-18T11:39:24.293Z,23.53
2019-01-18T11:41:56.565Z,23.82
2019-01-18T11:44:27.176Z,23.50
2019-01-18T11:47:16.631Z,23.72
2019-01-18T11:50:05.096Z,24.57
2019-01-18T11:52:35.592Z,22.90
2019-01-18T11:55:06.642Z,23.87
2019-01-18T11:57:36.978Z,26.17
2019-01-18T12:00:15.266Z,25.10
2019-01-18T12:02:45.568Z,24.50
2019-01-18T12:05:17.753Z,24.92
2019-01-18T12:07:48.638Z,26.83
2019-01-18T12:10:21.451Z,27.00
2019-01-18T12:12:57.234Z,25.20
2019-01-18T12:15:28.573Z,25.95
2019-01-18T12:17:59.188Z,29.27
2019-01-18T12:20:41.337Z,27.93
2019-01-18T12:23:11.925Z,27.87
2019-01-18T12:25:42.647Z,28.95
2019-01-18T12:28:23.717Z,26.90
2019-01-18T12:30:54.101Z,26.62
2019-01-18T12:33:24.614Z,26.70
2019-01-18T12:35:55.292Z,26.70
2019-01-18T12:38:25.806Z,28.33
2019-01-18T12:41:14.274Z,27.20
2019-01-18T12:43:35.650Z,29.17
2019-01-18T12:46:06.052Z,28.07
2019-01-18T12:48:36.528Z,26.17
2019-01-18T12:51:06.928Z,27.17
2019-01-18T12:53:56.331Z,27.50
2019-01-18T12:56:44.412Z,27.70
2019-01-18T12:59:15.019Z,27.60
2019-01-18T13:01:45.513Z,26.30
2019-01-18T13:04:16.216Z,27.13
2019-01-18T13:06:48.238Z,26.77
2019-01-18T13:09:18.965Z,27.47
2019-01-18T13:11:49.364Z,25.80
2019-01-18T13:14:20.185Z,28.38
2019-01-18T13:16:50.597Z,28.10
2019-01-18T13:19:26.048Z,25.35
2019-01-18T13:21:56.409Z,26.27
2019-01-18T13:24:27.217Z,27.90
2019-01-18T13:26:57.592Z,26.00
2019-01-18T13:29:28.231Z,24.23
2019-01-18T13:32:00.593Z,23.53
2019-01-18T13:34:32.186Z,24.35
2019-01-18T13:37:02.798Z,23.20
2019-01-18T13:39:38.267Z,24.27
2019-01-18T13:42:08.955Z,22.50
2019-01-18T13:44:43.745Z,22.22
2019-01-18T13:47:18.201Z,21.63
2019-01-18T13:49:47.134Z,21.15
2019-01-18T13:52:17.862Z,21.55
2019-01-18T13:54:48.648Z,21.90
2019-01-18T13:57:19.112Z,20.80
2019-01-18T13:59:49.763Z,21.60
2019-01-18T14:02:20.088Z,20.37
2019-01-18T14:04:55.407Z,21.23
2019-01-18T14:07:26.099Z,22.30
2019-01-18T14:10:02.296Z,23.50
2019-01-18T14:12:33.129Z,23.90
2019-01-18T14:15:05.595Z,23.27
2019-01-18T14:17:37.206Z,23.05
2019-01-18T14:20:13.031Z,23.77
2019-01-18T14:22:43.703Z,22.77
2019-01-18T14:25:22.402Z,22.70
2019-01-18T14:27:51.335Z,26.73
2019-01-18T14:30:24.870Z,27.05
2019-01-18T14:32:59.096Z,26.17
2019-01-18T14:35:29.533Z,27.98
2019-01-18T14:38:00.043Z,27.07
2019-01-18T14:40:33.897Z,29.30
2019-01-18T14:43:06.011Z,27.60
2019-01-18T14:45:41.013Z,28.92
2019-01-18T14:48:11.604Z,27.87
2019-01-18T14:50:43.454Z,26.80
2019-01-18T14:53:13.900Z,23.67
2019-01-18T14:55:49.823Z,27.00
2019-01-18T14:58:24.645Z,24.63
2019-01-18T15:00:54.686Z,24.17
2019-01-18T15:03:44.220Z,24.77
2019-01-18T15:06:17.154Z,26.30
2019-01-18T15:08:50.950Z,24.70
2019-01-18T15:11:21.312Z,23.90
2019-01-18T15:13:51.703Z,23.33
2019-01-18T15:16:22.167Z,24.93
2019-01-18T15:18:52.469Z,27.13
2019-01-18T15:21:30.686Z,28.02
2019-01-18T15:23:57.060Z,28.03
2019-01-18T15:26:27.384Z,24.23
2019-01-18T15:28:57.759Z,24.70
2019-01-18T15:31:28.126Z,21.67
2019-01-18T15:34:03.175Z,25.27
2019-01-18T15:36:33.543Z,25.87
2019-01-18T15:39:11.190Z,26.70
2019-01-18T15:41:45.240Z,23.03
2019-01-18T15:44:15.642Z,22.80
2019-01-18T15:46:46.265Z,24.17
2019-01-18T15:49:21.019Z,25.60
2019-01-18T15:51:51.364Z,26.80
2019-01-18T15:54:21.994Z,22.95
2019-01-18T15:57:04.295Z,22.97
2019-01-18T15:59:34.760Z,21.50
2019-01-18T16:02:07.333Z,20.27
2019-01-18T16:04:48.607Z,22.97
2019-01-18T16:07:19.165Z,24.07
2019-01-18T16:09:52.588Z,23.67
2019-01-18T16:12:23.134Z,22.83
2019-01-18T16:14:53.521Z,25.80
2019-01-18T16:17:36.015Z,25.55
2019-01-18T16:20:11.973Z,28.23
2019-01-18T16:22:42.655Z,25.25
2019-01-18T16:25:21.570Z,26.63
2019-01-18T16:27:51.939Z,30.25
2019-01-18T16:30:22.643Z,30.53
2019-01-18T16:32:53.778Z,30.12
2019-01-18T16:35:24.284Z,29.50
2019-01-18T16:37:54.851Z,26.65
2019-01-18T16:40:28.003Z,26.50
2019-01-18T16:43:17.124Z,28.00
2019-01-18T16:45:49.156Z,26.50
2019-01-18T16:48:19.454Z,22.40
2019-01-18T16:50:50.328Z,23.07
2019-01-18T16:53:21.016Z,22.45
2019-01-18T16:55:54.006Z,21.18
2019-01-18T16:58:24.402Z,22.67
2019-01-18T17:00:56.301Z,19.90
2019-01-18T17:03:30.561Z,18.43
2019-01-18T17:05:58.913Z,20.17
2019-01-18T17:08:29.366Z,19.17
2019-01-18T17:11:02.950Z,18.47
2019-01-18T17:13:38.189Z,20.20
2019-01-18T17:16:08.768Z,18.97
2019-01-18T17:18:40.986Z,17.83
2019-01-18T17:21:11.318Z,20.77
2019-01-18T17:23:41.950Z,17.83
2019-01-18T17:26:19.472Z,18.77
2019-01-18T17:28:50.158Z,20.35
2019-01-18T17:31:20.806Z,19.17
2019-01-18T17:33:51.460Z,16.62
2019-01-18T17:37:07.226Z,19.20
2019-01-18T17:40:11.272Z,17.85
2019-01-18T17:43:17.962Z,18.93
2019-01-18T17:46:04.905Z,18.92
2019-01-18T17:48:58.601Z,19.50
2019-01-18T17:51:57.752Z,18.20
2019-01-18T17:54:46.020Z,18.57
2019-01-18T17:57:40.530Z,19.63
2019-01-18T18:00:49.150Z,19.03
2019-01-18T18:04:15.909Z,19.30
2019-01-18T18:07:10.706Z,19.30
2019-01-18T18:10:31.424Z,18.37
2019-01-18T18:13:59.232Z,16.70
2019-01-18T18:16:56.753Z,18.03
2019-01-18T18:20:13.351Z,19.50
2019-01-18T18:23:07.323Z,17.10
2019-01-18T18:26:06.026Z,18.03
2019-01-18T18:29:03.567Z,17.63
2019-01-18T18:31:50.997Z,17.80
2019-01-18T18:35:13.682Z,16.00
2019-01-18T18:38:10.628Z,17.27
2019-01-18T18:41:27.899Z,16.47
2019-01-18T18:44:22.039Z,15.10
2019-01-18T18:47:02.305Z,16.47
2019-01-18T18:50:18.809Z,15.40
2019-01-18T18:53:17.557Z,15.53
2019-01-18T18:56:36.692Z,14.15
2019-01-18T18:59:55.452Z,15.60
2019-01-18T19:03:08.768Z,14.87
2019-01-18T19:06:32.252Z,14.83
2019-01-18T19:09:45.783Z,16.93
2019-01-18T19:12:41.772Z,14.83
2019-01-18T19:15:58.460Z,18.77
2019-01-18T19:19:11.569Z,14.87
2019-01-18T19:22:08.446Z,14.53
2019-01-18T19:25:42.089Z,15.80
2019-01-18T19:29:08.416Z,15.50
2019-01-18T19:32:14.321Z,15.13
2019-01-18T19:35:19.541Z,15.03
2019-01-18T19:38:22.611Z,15.90
2019-01-18T19:41:19.790Z,16.50
2019-01-18T19:44:39.349Z,17.52
2019-01-18T19:47:30.077Z,14.20
2019-01-18T19:50:43.879Z,13.88
2019-01-18T19:54:02.346Z,13.53
2019-01-18T19:56:49.997Z,14.40
2019-01-18T19:59:57.651Z,16.35
2019-01-18T20:02:41.124Z,15.50
2019-01-18T20:05:35.741Z,14.97
2019-01-18T20:08:59.494Z,15.90
2019-01-18T20:12:04.254Z,15.37
2019-01-18T20:14:47.571Z,14.70
2019-01-18T20:18:03.377Z,14.90
2019-01-18T20:21:37.681Z,14.58
2019-01-18T20:24:36.094Z,15.30
2019-01-18T20:27:38.103Z,14.40
2019-01-18T20:31:08.246Z,14.33
2019-01-18T20:34:30.679Z,13.57
2019-01-18T20:37:24.936Z,13.58
2019-01-18T20:40:49.302Z,13.77
2019-01-18T20:43:58.274Z,13.23
2019-01-18T20:47:16.841Z,12.70
2019-01-18T20:50:12.841Z,13.97
2019-01-18T20:53:12.267Z,12.73
2019-01-18T20:56:29.735Z,12.53
2019-01-18T20:59:14.416Z,12.73
2019-01-18T21:02:43.966Z,13.90
2019-01-18T21:05:53.561Z,13.93
2019-01-18T21:08:40.941Z,13.40
2019-01-18T21:11:26.494Z,13.43
2019-01-18T21:14:12.212Z,13.07
2019-01-18T21:17:09.100Z,13.03
2019-01-18T21:20:09.685Z,14.18
2019-01-18T21:23:33.714Z,12.75
2019-01-18T21:26:36.201Z,13.03
2019-01-18T21:29:52.416Z,13.80
2019-01-18T21:32:44.100Z,12.23
2019-01-18T21:36:06.855Z,13.07
2019-01-18T21:39:14.481Z,14.28
2019-01-18T21:42:29.460Z,13.60
2019-01-18T21:45:36.640Z,12.90
2019-01-18T21:49:12.939Z,12.95
2019-01-18T21:52:03.163Z,12.97
2019-01-18T21:54:57.413Z,12.70
2019-01-18T21:58:02.281Z,13.77
2019-01-18T22:01:03.657Z,13.90
2019-01-18T22:03:53.107Z,14.80
2019-01-18T22:06:59.167Z,13.30
2019-01-18T22:09:41.910Z,12.35
2019-01-18T22:12:39.463Z,13.37
2019-01-18T22:16:11.946Z,11.70
2019-01-18T22:19:28.616Z,12.27
2019-01-18T22:22:30.830Z,14.17
2019-01-18T22:25:43.375Z,13.14
2019-01-18T22:28:43.765Z,12.33
2019-01-18T22:31:47.041Z,12.30
2019-01-18T22:34:47.869Z,12.63
2019-01-18T22:38:02.527Z,13.50
2019-01-18T22:40:56.162Z,12.80
2019-01-18T22:43:41.299Z,14.63
2019-01-18T22:46:52.992Z,13.40
2019-01-18T22:49:47.559Z,12.47
2019-01-18T22:53:17.392Z,14.10
2019-01-18T22:56:10.840Z,13.20
2019-01-18T22:59:20.286Z,13.13
2019-01-18T23:02:26.421Z,14.13
2019-01-18T23:05:42.786Z,12.50
2019-01-18T23:08:48.630Z,13.57
2019-01-18T23:11:35.578Z,13.40
2019-01-18T23:14:20.161Z,13.10
2019-01-18T23:17:27.573Z,12.33
2019-01-18T23:20:33.410Z,12.83
2019-01-18T23:23:44.283Z,12.40
2019-01-18T23:27:07.227Z,12.60
2019-01-18T23:30:15.148Z,12.50
2019-01-18T23:33:34.253Z,12.30
2019-01-18T23:36:52.265Z,13.70
2019-01-18T23:40:08.493Z,12.93
2019-01-18T23:43:04.107Z,12.23
2019-01-18T23:46:20.118Z,13.33
2019-01-18T23:49:20.700Z,11.83
2019-01-18T23:52:30.131Z,11.70
2019-01-18T23:55:36.951Z,12.15
2019-01-18T23:58:33.611Z,11.57
